Time;durP1;ratioP1;P1;durP2;ratioP2;P2;SDS_P1;SDS_P2;PMS_P1;PMS_P2;Temp;Humidity;BMP_temperature;BMP_pressure;BME280_temperature;BME280_humidity;BME280_pressure;Samples;Min_cycle;Max_cycle;Signal;HPM_P1;HPM_P2
2021/09/21 00:01:19;;;;;;;;;;;;;;;10.46;72.96;102704.69;5068993;28;19924;-43
2021/09/21 00:03:45;;;;;;;;;;;;;;;10.41;73.21;102703.97;5070415;28;20345;-42
2021/09/21 00:06:12;;;;;;;;;;;;;;;10.38;73.08;102706.72;5070196;28;19976;-44
2021/09/21 00:08:39;;;;;;;;;;;;;;;10.41;73.20;102710.09;5069793;28;20321;-46
2021/09/21 00:11:05;;;;;;;;;;;;;;;10.41;73.68;102711.88;5070873;28;19977;-44
2021/09/21 00:13:32;;;;;;;;;;;;;;;10.31;73.98;102717.41;5069077;28;20061;-43
2021/09/21 00:15:59;;;;;;;;;;;;;;;10.34;74.08;102712.97;5070247;28;19936;-50
2021/09/21 00:18:25;;;;;;;;;;;;;;;10.21;73.83;102708.13;5069171;28;19924;-51
2021/09/21 00:20:52;;;;;;;;;;;;;;;10.28;73.73;102712.25;5070227;28;19928;-51
2021/09/21 00:23:19;;;;;;;;;;;;;;;10.32;74.00;102711.25;5069453;28;19929;-52
2021/09/21 00:25:45;;;;;;;;;;;;;;;10.24;74.10;102701.88;5070308;28;19925;-53
2021/09/21 00:28:12;;;;;;;;;;;;;;;10.13;73.82;102700.50;5068981;28;19982;-51
2021/09/21 00:30:46;;;;;;;;;;;;;;;10.04;73.39;102703.41;5068308;28;19924;-54
2021/09/21 00:33:21;;;;;;;;;;;;;;;10.06;73.30;102706.00;5069952;28;20394;-53
2021/09/21 00:35:48;;;;;;;;;;;;;;;10.03;73.55;102709.59;5070066;28;19929;-54
2021/09/21 00:38:15;;;;;;;;;;;;;;;10.04;73.13;102711.31;5069089;28;19924;-50
2021/09/21 00:40:42;;;;;;;;;;;;;;;10.11;73.02;102704.06;5068270;28;19928;-53
2021/09/21 00:43:09;;;;;;;;;;;;;;;10.03;72.98;102708.72;5068127;28;19924;-54
2021/09/21 00:45:36;;;;;;;;;;;;;;;10.02;73.22;102713.16;5051612;28;19928;-54
2021/09/21 00:48:03;;;;;;;;;;;;;;;9.96;74.08;102703.66;5068930;28;20444;-43
2021/09/21 00:50:30;;;;;;;;;;;;;;;9.95;74.16;102704.59;5051379;28;19928;-44
2021/09/21 00:52:58;;;;;;;;;;;;;;;9.93;74.36;102706.41;5051873;28;19924;-45
2021/09/21 00:55:25;;;;;;;;;;;;;;;9.98;75.00;102709.75;5068639;28;20345;-43
2021/09/21 00:57:52;;;;;;;;;;;;;;;9.93;75.10;102719.53;5067593;28;19974;-43
2021/09/21 01:00:20;;;;;;;;;;;;;;;9.85;75.43;102721.56;5069375;28;19924;-46
2021/09/21 01:02:46;;;;;;;;;;;;;;;9.85;75.13;102731.22;5069866;28;19978;-44
2021/09/21 01:05:13;;;;;;;;;;;;;;;9.78;76.34;102731.41;5069235;28;20458;-44
2021/09/21 01:07:40;;;;;;;;;;;;;;;9.77;75.94;102734.09;5069688;28;20272;-41
2021/09/21 01:10:08;;;;;;;;;;;;;;;9.78;75.59;102733.19;5070144;28;20328;-45
2021/09/21 01:12:35;;;;;;;;;;;;;;;9.71;76.15;102732.53;5068028;28;19932;-45
2021/09/21 01:15:03;;;;;;;;;;;;;;;9.67;76.18;102743.16;5068321;28;19960;-43
2021/09/21 01:17:29;;;;;;;;;;;;;;;9.58;76.72;102742.53;5069477;28;19993;-45
2021/09/21 01:19:56;;;;;;;;;;;;;;;9.59;76.54;102741.63;5069932;28;20043;-43
2021/09/21 01:22:23;;;;;;;;;;;;;;;9.61;75.91;102741.59;5068697;28;19926;-44
2021/09/21 01:24:49;;;;;;;;;;;;;;;9.48;76.40;102744.59;5067987;28;20437;-44
2021/09/21 01:27:16;;;;;;;;;;;;;;;9.46;76.73;102735.03;5067015;28;20467;-44
2021/09/21 01:29:43;;;;;;;;;;;;;;;9.62;76.48;102731.03;5069317;28;19928;-50
2021/09/21 01:32:09;;;;;;;;;;;;;;;9.66;76.12;102730.94;5069278;28;20367;-50
2021/09/21 01:34:36;;;;;;;;;;;;;;;9.56;76.50;102727.75;5069018;28;19928;-48
2021/09/21 01:37:03;;;;;;;;;;;;;;;9.52;77.43;102718.25;5069601;28;20387;-48
2021/09/21 01:39:30;;;;;;;;;;;;;;;9.38;77.63;102716.91;5067574;28;19924;-49
2021/09/21 01:41:57;;;;;;;;;;;;;;;9.27;78.24;102714.59;5067592;28;20353;-50
2021/09/21 01:44:24;;;;;;;;;;;;;;;9.23;78.36;102712.97;5067684;28;19925;-51
2021/09/21 01:46:51;;;;;;;;;;;;;;;9.24;78.36;102714.69;5068262;28;20337;-52
2021/09/21 01:49:22;;;;;;;;;;;;;;;9.19;78.57;102715.72;5068833;28;20302;-50
2021/09/21 01:52:10;;;;;;;;;;;;;;;9.23;77.89;102712.97;5068958;28;19932;-50
2021/09/21 01:59:49;;;;;;;;;;;;;;;9.10;77.71;102698.47;5069592;28;19925;-53
2021/09/21 02:02:15;;;;;;;;;;;;;;;9.13;77.85;102696.63;5070643;28;20415;-52
2021/09/21 02:04:42;;;;;;;;;;;;;;;9.18;78.22;102693.00;5072746;28;20595;-52
2021/09/21 02:07:08;;;;;;;;;;;;;;;9.07;78.47;102685.44;5072866;28;19925;-54
2021/09/21 02:09:35;;;;;;;;;;;;;;;9.03;79.15;102689.91;5072791;28;19987;-54
2021/09/21 02:12:02;;;;;;;;;;;;;;;9.06;79.04;102691.59;5071650;28;19932;-50
2021/09/21 02:14:28;;;;;;;;;;;;;;;9.07;79.04;102690.69;5070189;28;19924;-54
2021/09/21 02:16:55;;;;;;;;;;;;;;;9.14;78.76;102692.22;5073146;28;19924;-44
2021/09/21 02:19:22;;;;;;;;;;;;;;;9.09;78.23;102692.38;5072464;28;20341;-42
2021/09/21 02:21:50;;;;;;;;;;;;;;;9.02;78.77;102703.09;5072574;28;19928;-42
2021/09/21 02:24:22;;;;;;;;;;;;;;;9.02;78.50;102698.69;5071440;28;19936;-47
2021/09/21 02:26:49;;;;;;;;;;;;;;;8.93;79.81;102699.81;5070449;28;19931;-44
2021/09/21 02:29:16;;;;;;;;;;;;;;;9.01;78.84;102707.47;5071351;28;19929;-42
2021/09/21 02:31:42;;;;;;;;;;;;;;;9.10;78.81;102698.47;5072460;28;19925;-41
2021/09/21 02:34:09;;;;;;;;;;;;;;;8.99;79.14;102703.19;5072328;28;19956;-42
2021/09/21 02:36:40;;;;;;;;;;;;;;;8.91;80.12;102703.41;5072346;28;20399;-43
2021/09/21 02:39:08;;;;;;;;;;;;;;;8.88;80.79;102700.88;5072277;28;20614;-44
2021/09/21 02:41:35;;;;;;;;;;;;;;;8.95;80.67;102699.78;5072039;28;19952;-43
2021/09/21 02:44:01;;;;;;;;;;;;;;;8.88;80.32;102699.09;5070784;28;19928;-45
2021/09/21 02:46:28;;;;;;;;;;;;;;;9.00;80.11;102708.38;5070464;28;19968;-42
2021/09/21 02:48:55;;;;;;;;;;;;;;;8.94;79.93;102711.16;5070801;28;19970;-50
2021/09/21 02:51:21;;;;;;;;;;;;;;;8.79;80.37;102720.34;5071592;28;20346;-53
2021/09/21 02:53:48;;;;;;;;;;;;;;;8.77;81.21;102733.50;5071948;28;19924;-53
2021/09/21 02:56:15;;;;;;;;;;;;;;;8.76;82.14;102729.16;5071360;28;19933;-49
2021/09/21 02:58:42;;;;;;;;;;;;;;;8.81;81.68;102731.66;5069480;28;19947;-50
2021/09/21 03:01:08;;;;;;;;;;;;;;;8.79;81.95;102723.84;5071543;28;19928;-42
2021/09/21 03:03:50;;;;;;;;;;;;;;;8.83;81.65;102731.63;5071809;28;19940;-41
2021/09/21 03:06:40;;;;;;;;;;;;;;;8.67;83.25;102720.69;5071413;28;20322;-42
2021/09/21 03:11:42;;;;;;;;;;;;;;;8.68;83.07;102732.91;5071616;28;19994;-43
2021/09/21 03:17:17;;;;;;;;;;;;;;;8.63;82.98;102761.88;5071820;28;20295;-45
2021/09/21 03:19:44;;;;;;;;;;;;;;;8.66;83.02;102764.41;5071450;28;19924;-43
2021/09/21 03:22:11;;;;;;;;;;;;;;;8.72;82.85;102771.25;5071087;28;20753;-42
2021/09/21 03:24:37;;;;;;;;;;;;;;;8.55;83.67;102766.44;5070211;28;19974;-41
2021/09/21 03:27:04;;;;;;;;;;;;;;;8.48;83.89;102771.00;5070774;28;19953;-43
2021/09/21 03:29:31;;;;;;;;;;;;;;;8.53;83.93;102765.63;5069093;28;19928;-44
2021/09/21 03:31:57;;;;;;;;;;;;;;;8.54;83.07;102775.22;5069878;28;19982;-41
2021/09/21 03:34:24;;;;;;;;;;;;;;;8.58;83.15;102772.47;5069771;28;19951;-40
2021/09/21 03:36:51;;;;;;;;;;;;;;;8.51;83.41;102762.19;5069447;28;19931;-41
2021/09/21 03:39:17;;;;;;;;;;;;;;;8.44;83.73;102770.19;5070431;28;19989;-41
2021/09/21 03:41:44;;;;;;;;;;;;;;;8.49;83.39;102767.47;5070015;28;19924;-43
2021/09/21 03:44:10;;;;;;;;;;;;;;;8.40;83.97;102765.06;5069800;28;20382;-42
2021/09/21 03:46:37;;;;;;;;;;;;;;;8.46;83.84;102772.78;5069809;28;19924;-42
2021/09/21 03:49:04;;;;;;;;;;;;;;;8.39;84.42;102779.06;5069371;28;19986;-47
2021/09/21 03:51:30;;;;;;;;;;;;;;;8.33;84.43;102776.59;5070274;28;19925;-53
2021/09/21 03:53:57;;;;;;;;;;;;;;;8.32;84.96;102780.09;5070876;28;20390;-45
2021/09/21 03:56:24;;;;;;;;;;;;;;;8.18;86.05;102773.47;5070577;28;19978;-42
2021/09/21 03:58:50;;;;;;;;;;;;;;;8.19;86.00;102780.41;5069980;28;19924;-43
2021/09/21 04:01:17;;;;;;;;;;;;;;;8.14;85.75;102784.91;5069891;28;20028;-43
2021/09/21 04:03:44;;;;;;;;;;;;;;;8.24;85.78;102786.41;5070525;28;19928;-44
2021/09/21 04:06:10;;;;;;;;;;;;;;;8.33;86.07;102784.44;5070541;28;19928;-43
2021/09/21 04:08:37;;;;;;;;;;;;;;;8.28;86.07;102782.81;5070614;28;19925;-43
2021/09/21 04:11:04;;;;;;;;;;;;;;;8.28;85.99;102784.56;5070861;28;20413;-44
2021/09/21 04:13:33;;;;;;;;;;;;;;;8.17;86.74;102795.31;5068709;28;19925;-44
2021/09/21 04:16:00;;;;;;;;;;;;;;;8.15;85.75;102791.00;5069165;28;19929;-42
2021/09/21 04:18:27;;;;;;;;;;;;;;;8.05;87.17;102785.97;5069865;28;19928;-45
2021/09/21 04:20:53;;;;;;;;;;;;;;;7.98;87.33;102791.44;5070106;28;19932;-42
2021/09/21 04:23:20;;;;;;;;;;;;;;;8.08;85.99;102791.13;5069714;28;19928;-44
2021/09/21 04:25:47;;;;;;;;;;;;;;;8.06;86.99;102790.34;5069108;28;20357;-45
2021/09/21 04:28:13;;;;;;;;;;;;;;;8.03;86.84;102789.53;5069037;28;19928;-42
2021/09/21 04:30:42;;;;;;;;;;;;;;;8.09;86.18;102794.66;5069601;28;19924;-44
2021/09/21 04:33:09;;;;;;;;;;;;;;;8.19;85.86;102796.13;5070192;28;19924;-40
2021/09/21 04:35:36;;;;;;;;;;;;;;;8.15;86.40;102793.63;5069763;28;19932;-42
2021/09/21 04:38:03;;;;;;;;;;;;;;;8.12;86.64;102800.66;5070230;28;20240;-42
2021/09/21 04:40:29;;;;;;;;;;;;;;;8.22;86.55;102801.31;5068285;28;19925;-43
2021/09/21 04:42:56;;;;;;;;;;;;;;;8.12;86.85;102816.38;5067990;28;19929;-44
2021/09/21 04:45:23;;;;;;;;;;;;;;;8.10;87.25;102833.06;5069761;28;19928;-44
2021/09/21 04:47:49;;;;;;;;;;;;;;;8.07;87.64;102826.13;5070041;28;19971;-44
2021/09/21 04:50:16;;;;;;;;;;;;;;;8.17;87.37;102818.91;5069877;28;19924;-45
2021/09/21 04:52:43;;;;;;;;;;;;;;;8.18;87.07;102810.16;5069913;28;20418;-44
2021/09/21 04:55:09;;;;;;;;;;;;;;;8.22;87.74;102814.44;5070467;28;19924;-41
2021/09/21 04:57:36;;;;;;;;;;;;;;;8.22;88.15;102827.53;5067559;28;19932;-43
2021/09/21 05:00:04;;;;;;;;;;;;;;;8.25;88.28;102843.19;5069506;28;19929;-45
2021/09/21 05:02:31;;;;;;;;;;;;;;;8.23;88.71;102833.63;5068959;28;19936;-43
2021/09/21 05:05:00;;;;;;;;;;;;;;;8.23;89.13;102826.63;5068350;28;19931;-43
2021/09/21 05:07:27;;;;;;;;;;;;;;;8.19;89.92;102840.69;5069286;28;20401;-41
2021/09/21 05:09:53;;;;;;;;;;;;;;;8.28;89.49;102847.50;5069840;28;19982;-41
2021/09/21 05:12:20;;;;;;;;;;;;;;;8.25;89.85;102845.81;5067801;28;19928;-41
2021/09/21 05:14:47;;;;;;;;;;;;;;;8.36;89.96;102852.56;5068533;28;19991;-41
2021/09/21 05:17:14;;;;;;;;;;;;;;;8.42;89.69;102855.03;5069628;28;20342;-43
2021/09/21 05:19:40;;;;;;;;;;;;;;;8.44;89.75;102858.50;5069570;28;19970;-52
2021/09/21 05:22:07;;;;;;;;;;;;;;;8.55;89.43;102856.50;5069089;28;20283;-51
2021/09/21 05:24:34;;;;;;;;;;;;;;;8.52;89.68;102858.31;5069008;28;20342;-49
2021/09/21 05:27:00;;;;;;;;;;;;;;;8.53;89.59;102857.44;5068486;28;19935;-52
2021/09/21 05:29:27;;;;;;;;;;;;;;;8.51;90.06;102854.84;5067902;28;19928;-54
2021/09/21 05:31:53;;;;;;;;;;;;;;;8.65;89.37;102864.13;5069814;28;19928;-52
2021/09/21 05:34:20;;;;;;;;;;;;;;;8.66;89.70;102871.09;5068035;28;20264;-51
2021/09/21 05:36:46;;;;;;;;;;;;;;;8.65;90.22;102870.22;5070190;28;20344;-53
2021/09/21 05:39:14;;;;;;;;;;;;;;;8.77;89.59;102876.94;5072990;28;20069;-45
2021/09/21 05:41:42;;;;;;;;;;;;;;;8.81;89.22;102868.09;5073171;28;20369;-42
2021/09/21 05:44:08;;;;;;;;;;;;;;;8.88;88.54;102874.06;5070955;28;19998;-44
2021/09/21 05:46:39;;;;;;;;;;;;;;;8.97;88.10;102868.53;5073374;28;20019;-43
2021/09/21 05:49:06;;;;;;;;;;;;;;;8.96;89.08;102878.19;5072925;28;20406;-41
2021/09/21 05:51:33;;;;;;;;;;;;;;;9.01;89.01;102878.06;5073151;28;20466;-43
2021/09/21 05:53:59;;;;;;;;;;;;;;;9.01;88.44;102870.19;5073724;28;19947;-43
2021/09/21 05:56:26;;;;;;;;;;;;;;;9.01;89.16;102869.34;5073224;28;19982;-42
2021/09/21 05:58:52;;;;;;;;;;;;;;;9.04;88.52;102864.88;5070632;28;20288;-42
2021/09/21 06:01:19;;;;;;;;;;;;;;;9.06;88.56;102862.22;5072240;28;20038;-45
2021/09/21 06:03:46;;;;;;;;;;;;;;;9.14;88.14;102870.72;5072785;28;20045;-42
2021/09/21 06:06:13;;;;;;;;;;;;;;;9.28;88.52;102870.34;5071846;28;19983;-43
2021/09/21 06:08:40;;;;;;;;;;;;;;;9.26;87.81;102869.56;5072854;28;19925;-42
2021/09/21 06:11:06;;;;;;;;;;;;;;;9.31;88.80;102867.63;5073024;28;19978;-42
2021/09/21 06:13:33;;;;;;;;;;;;;;;9.29;88.96;102875.56;5070459;28;19928;-44
2021/09/21 06:16:00;;;;;;;;;;;;;;;9.36;88.63;102880.66;5071300;28;19931;-43
2021/09/21 06:18:27;;;;;;;;;;;;;;;9.42;89.19;102876.09;5059502;28;19983;-42
2021/09/21 06:20:53;;;;;;;;;;;;;;;9.47;89.31;102883.84;5043031;28;19931;-44
2021/09/21 06:23:20;;;;;;;;;;;;;;;9.54;89.30;102888.00;5051201;28;20399;-52
2021/09/21 06:25:46;;;;;;;;;;;;;;;9.62;88.32;102893.06;5048307;28;20035;-53
2021/09/21 06:28:13;;;;;;;;;;;;;;;9.71;88.34;102897.19;5049624;28;20299;-53
2021/09/21 06:30:40;;;;;;;;;;;;;;;9.75;87.84;102897.06;5050928;28;20364;-52
2021/09/21 06:33:06;;;;;;;;;;;;;;;9.88;88.07;102905.44;5052404;28;20006;-52
2021/09/21 06:35:33;;;;;;;;;;;;;;;9.92;88.44;102906.22;5052075;28;19929;-49
2021/09/21 06:38:00;;;;;;;;;;;;;;;10.03;88.04;102909.38;5051945;28;20311;-53
2021/09/21 06:40:26;;;;;;;;;;;;;;;10.10;88.36;102908.31;5051699;28;19994;-51
2021/09/21 06:42:53;;;;;;;;;;;;;;;10.15;87.90;102916.03;5051614;28;19929;-54
2021/09/21 06:45:20;;;;;;;;;;;;;;;10.18;87.05;102908.03;5055946;28;19925;-47
2021/09/21 06:47:47;;;;;;;;;;;;;;;10.23;88.21;102916.66;5058213;28;19963;-48
2021/09/21 06:50:13;;;;;;;;;;;;;;;10.33;87.79;102922.50;5049901;28;20388;-43
2021/09/21 06:52:40;;;;;;;;;;;;;;;10.39;88.66;102910.94;5070797;28;20322;-42
2021/09/21 06:55:07;;;;;;;;;;;;;;;10.37;89.69;102907.53;5072036;28;20397;-42
2021/09/21 06:57:34;;;;;;;;;;;;;;;10.52;89.01;102911.44;5054604;28;20489;-42
2021/09/21 07:00:00;;;;;;;;;;;;;;;10.57;89.11;102917.41;5050687;28;19975;-43
2021/09/21 07:02:27;;;;;;;;;;;;;;;10.60;88.94;102905.00;5051580;28;19971;-42
2021/09/21 07:04:54;;;;;;;;;;;;;;;10.67;88.69;102899.56;5042960;28;20003;-41
2021/09/21 07:07:21;;;;;;;;;;;;;;;10.71;88.40;102906.44;5039731;28;20265;-41
2021/09/21 07:09:47;;;;;;;;;;;;;;;10.76;88.49;102910.63;5039367;28;20690;-43
2021/09/21 07:12:14;;;;;;;;;;;;;;;10.84;87.08;102913.03;5034697;28;20317;-44
2021/09/21 07:14:41;;;;;;;;;;;;;;;10.95;85.81;102915.28;5050370;28;19936;-42
2021/09/21 07:17:07;;;;;;;;;;;;;;;11.01;85.53;102924.75;5050608;28;19928;-43
2021/09/21 07:19:34;;;;;;;;;;;;;;;11.09;85.80;102928.84;5048552;28;19928;-43
2021/09/21 07:22:00;;;;;;;;;;;;;;;11.16;84.84;102935.59;5051261;28;19948;-53
2021/09/21 07:24:27;;;;;;;;;;;;;;;11.25;84.83;102939.72;5050632;28;19925;-52
2021/09/21 07:26:54;;;;;;;;;;;;;;;11.30;83.86;102942.16;5050262;28;19933;-43
2021/09/21 07:29:20;;;;;;;;;;;;;;;11.42;85.60;102948.78;5049685;28;20454;-44
2021/09/21 07:31:48;;;;;;;;;;;;;;;11.45;84.47;102952.19;5050798;28;19925;-42
2021/09/21 07:34:15;;;;;;;;;;;;;;;11.50;83.60;102947.59;5050144;28;20276;-42
2021/09/21 07:36:45;;;;;;;;;;;;;;;11.59;82.94;102935.88;5050788;28;19925;-44
2021/09/21 07:39:13;;;;;;;;;;;;;;;11.73;84.02;102940.63;5050295;28;19976;-46
2021/09/21 07:41:40;;;;;;;;;;;;;;;11.82;84.82;102939.44;5050479;28;20300;-44
2021/09/21 07:44:07;;;;;;;;;;;;;;;11.91;84.60;102947.00;5049126;28;20399;-44
2021/09/21 07:46:33;;;;;;;;;;;;;;;11.95;84.43;102947.78;5050632;28;19928;-47
2021/09/21 07:49:00;;;;;;;;;;;;;;;11.99;84.26;102952.03;5049920;28;19975;-43
2021/09/21 07:51:27;;;;;;;;;;;;;;;12.06;84.28;102956.16;5048934;28;19983;-45
2021/09/21 07:53:54;;;;;;;;;;;;;;;12.17;83.81;102959.25;5050638;28;19986;-44
2021/09/21 07:56:21;;;;;;;;;;;;;;;12.29;83.50;102965.81;5050138;28;20010;-45
2021/09/21 07:58:48;;;;;;;;;;;;;;;12.31;82.76;102966.63;5049546;28;19925;-44
2021/09/21 08:01:14;;;;;;;;;;;;;;;12.32;82.49;102963.06;5049677;28;19970;-44
2021/09/21 08:03:42;;;;;;;;;;;;;;;12.37;82.03;102960.25;5049590;28;19933;-42
2021/09/21 08:06:10;;;;;;;;;;;;;;;12.54;82.87;102959.56;5050509;28;19976;-43
2021/09/21 08:08:39;;;;;;;;;;;;;;;12.91;82.43;102968.66;5049796;28;20383;-45
2021/09/21 08:11:08;;;;;;;;;;;;;;;13.15;81.90;102969.38;5049752;28;19932;-43
2021/09/21 08:13:35;;;;;;;;;;;;;;;13.38;80.79;102977.31;5047437;28;20020;-42
2021/09/21 08:16:01;;;;;;;;;;;;;;;13.55;80.30;102985.34;5048639;28;19929;-45
2021/09/21 08:18:28;;;;;;;;;;;;;;;13.74;79.58;102990.69;5049228;28;19975;-45
2021/09/21 08:20:55;;;;;;;;;;;;;;;13.79;77.73;103003.72;5065249;28;19975;-45
2021/09/21 08:23:21;;;;;;;;;;;;;;;13.95;76.86;103007.38;5049687;28;20329;-45
2021/09/21 08:25:48;;;;;;;;;;;;;;;14.07;76.85;103007.75;5049572;28;19929;-42
2021/09/21 08:28:14;;;;;;;;;;;;;;;14.16;75.87;103015.25;5048748;28;19925;-43
2021/09/21 08:30:41;;;;;;;;;;;;;;;14.12;75.46;103019.81;5049354;28;19931;-42
2021/09/21 08:33:08;;;;;;;;;;;;;;;14.39;75.54;103011.56;5048002;28;19979;-44
2021/09/21 08:35:35;;;;;;;;;;;;;;;14.55;75.80;103009.03;5065019;28;19925;-43
2021/09/21 08:38:02;;;;;;;;;;;;;;;14.70;72.67;103015.44;5048415;28;19929;-44
2021/09/21 08:40:30;;;;;;;;;;;;;;;14.74;71.03;103014.34;5049337;28;19929;-43
2021/09/21 08:42:57;;;;;;;;;;;;;;;14.60;70.21;103011.47;5048210;28;19932;-53
2021/09/21 08:45:24;;;;;;;;;;;;;;;14.75;70.31;103004.59;5048840;28;19940;-53
2021/09/21 08:47:51;;;;;;;;;;;;;;;14.97;70.12;102992.03;5048592;28;19932;-54
2021/09/21 08:50:17;;;;;;;;;;;;;;;15.10;69.30;102999.34;5063825;28;20039;-53
2021/09/21 08:52:46;;;;;;;;;;;;;;;15.24;68.27;103012.75;5048889;28;20315;-53
2021/09/21 08:55:13;;;;;;;;;;;;;;;15.32;63.69;103010.56;5048604;28;20391;-51
2021/09/21 08:57:40;;;;;;;;;;;;;;;15.55;63.97;103006.72;5047949;28;19978;-53
2021/09/21 09:00:07;;;;;;;;;;;;;;;15.72;64.39;103021.78;5063745;28;19925;-51
2021/09/21 09:02:34;;;;;;;;;;;;;;;15.88;64.34;103023.63;5047441;28;19975;-51
2021/09/21 09:05:07;;;;;;;;;;;;;;;16.11;64.22;103018.91;5049125;28;20521;-50
2021/09/21 09:07:35;;;;;;;;;;;;;;;16.32;63.77;103012.41;5049107;28;19929;-50
2021/09/21 09:10:05;;;;;;;;;;;;;;;16.35;61.63;103014.88;5048107;28;19925;-49
2021/09/21 09:12:35;;;;;;;;;;;;;;;16.49;60.80;103010.63;5046625;28;20417;-52
2021/09/21 09:15:11;;;;;;;;;;;;;;;16.71;58.27;103007.59;5049082;28;19925;-50
2021/09/21 09:17:38;;;;;;;;;;;;;;;16.96;55.78;103004.41;5049101;28;19925;-49
2021/09/21 09:20:06;;;;;;;;;;;;;;;17.06;56.51;102996.75;5049167;28;19928;-49
2021/09/21 09:22:33;;;;;;;;;;;;;;;17.09;55.47;103003.69;5048349;28;20338;-51
2021/09/21 09:25:01;;;;;;;;;;;;;;;17.24;56.31;103000.13;5031297;28;19929;-52
2021/09/21 09:27:34;;;;;;;;;;;;;;;17.48;56.71;102997.81;5047587;28;20067;-51
2021/09/21 09:30:03;;;;;;;;;;;;;;;17.71;56.75;102998.19;5048552;28;20367;-51
2021/09/21 09:32:30;;;;;;;;;;;;;;;17.86;54.07;102997.25;5063178;28;20051;-50
2021/09/21 09:34:59;;;;;;;;;;;;;;;18.04;54.27;103000.59;5047344;28;20304;-52
2021/09/21 09:37:36;;;;;;;;;;;;;;;18.05;47.36;103004.97;5048441;28;20112;-53
2021/09/21 09:40:03;;;;;;;;;;;;;;;18.21;48.50;103004.00;5048833;28;19928;-47
2021/09/21 09:42:32;;;;;;;;;;;;;;;18.27;45.69;103008.06;5045721;28;19975;-52
2021/09/21 09:45:00;;;;;;;;;;;;;;;18.35;46.34;103003.97;5047447;28;19932;-46
2021/09/21 09:47:27;;;;;;;;;;;;;;;18.61;48.64;103005.88;5048229;28;19929;-44
2021/09/21 09:49:55;;;;;;;;;;;;;;;18.57;43.62;103002.59;5063838;28;19929;-47
2021/09/21 09:52:22;;;;;;;;;;;;;;;18.75;44.76;103012.00;5048502;28;19929;-44
2021/09/21 09:54:49;;;;;;;;;;;;;;;19.05;43.59;102999.47;5048780;28;20019;-42
2021/09/21 09:57:16;;;;;;;;;;;;;;;19.25;41.07;103011.41;5047513;28;19929;-47
2021/09/21 09:59:42;;;;;;;;;;;;;;;19.34;42.42;103002.78;5048577;28;19925;-44
2021/09/21 10:02:09;;;;;;;;;;;;;;;19.58;42.22;102999.41;5063775;28;20299;-42
2021/09/21 10:04:38;;;;;;;;;;;;;;;19.64;44.68;103001.63;5063565;28;20031;-48
2021/09/21 10:07:04;;;;;;;;;;;;;;;19.79;44.26;102997.03;5059750;28;19925;-45
2021/09/21 10:09:31;;;;;;;;;;;;;;;20.05;43.68;103002.34;5045096;28;19975;-45
2021/09/21 10:11:58;;;;;;;;;;;;;;;20.23;42.88;102994.81;5033514;28;20585;-45
2021/09/21 10:14:25;;;;;;;;;;;;;;;20.18;42.74;103007.66;5062352;28;19932;-43
2021/09/21 10:16:51;;;;;;;;;;;;;;;19.97;42.93;102997.56;5063954;28;19928;-47
2021/09/21 10:19:19;;;;;;;;;;;;;;;20.17;41.94;102997.97;5047121;28;19925;-43
2021/09/21 10:21:46;;;;;;;;;;;;;;;19.91;41.88;102998.00;5048160;28;19925;-44
2021/09/21 10:24:13;;;;;;;;;;;;;;;20.05;42.22;103002.34;5065920;28;19931;-42
2021/09/21 10:26:41;;;;;;;;;;;;;;;20.14;40.47;103006.16;5052016;28;20031;-45
2021/09/21 10:29:08;;;;;;;;;;;;;;;20.31;41.17;103012.97;5050986;28;19929;-43
2021/09/21 10:31:36;;;;;;;;;;;;;;;20.87;43.06;103007.94;5033673;28;19929;-42
2021/09/21 10:34:16;;;;;;;;;;;;;;;20.75;39.93;103004.38;5051632;28;20411;-45
2021/09/21 10:36:47;;;;;;;;;;;;;;;20.74;39.09;103005.34;5050519;28;19987;-41
2021/09/21 10:39:14;;;;;;;;;;;;;;;20.64;40.28;103012.31;5051570;28;19933;-42
2021/09/21 10:41:50;;;;;;;;;;;;;;;21.13;38.74;103005.13;5050842;28;19929;-44
2021/09/21 10:44:17;;;;;;;;;;;;;;;21.06;38.47;103004.72;5033100;28;19929;-45
2021/09/21 10:46:44;;;;;;;;;;;;;;;21.62;39.67;103000.50;5052362;28;19933;-43
2021/09/21 10:49:20;;;;;;;;;;;;;;;22.00;37.44;103004.63;5050782;28;20308;-44
2021/09/21 10:51:47;;;;;;;;;;;;;;;22.06;36.42;103008.63;5066686;28;19929;-45
2021/09/21 10:54:14;;;;;;;;;;;;;;;22.06;35.58;103004.13;5051626;28;20430;-48
2021/09/21 10:56:40;;;;;;;;;;;;;;;21.99;35.76;103008.28;5051457;28;19929;-47
2021/09/21 10:59:14;;;;;;;;;;;;;;;22.10;35.29;103007.41;5066216;28;19936;-46
2021/09/21 11:01:48;;;;;;;;;;;;;;;22.16;35.37;103004.25;5052209;28;19933;-46
2021/09/21 11:04:15;;;;;;;;;;;;;;;22.26;35.59;103009.69;5050275;28;20012;-48
2021/09/21 11:06:45;;;;;;;;;;;;;;;22.56;33.56;103008.19;5050467;28;20414;-43
2021/09/21 11:09:11;;;;;;;;;;;;;;;22.90;34.18;103005.38;5050330;28;19935;-45
2021/09/21 11:11:38;;;;;;;;;;;;;;;23.18;32.41;102995.00;5052138;28;19929;-47
2021/09/21 11:14:05;;;;;;;;;;;;;;;23.20;33.25;102985.84;5050284;28;20467;-48
2021/09/21 11:16:31;;;;;;;;;;;;;;;22.98;33.82;102989.47;5051972;28;20055;-49
2021/09/21 11:18:59;;;;;;;;;;;;;;;23.08;33.90;102978.81;5051727;28;19929;-47
2021/09/21 11:21:25;;;;;;;;;;;;;;;23.31;33.79;102984.06;5066672;28;19928;-47
2021/09/21 11:23:54;;;;;;;;;;;;;;;23.49;34.06;102987.00;5051460;28;19932;-46
2021/09/21 11:26:21;;;;;;;;;;;;;;;23.31;34.66;102979.53;5051221;28;19978;-46
2021/09/21 11:28:48;;;;;;;;;;;;;;;23.53;33.69;102977.69;5049856;28;19929;-46
2021/09/21 11:31:16;;;;;;;;;;;;;;;23.23;34.25;102990.97;5050414;28;20635;-45
2021/09/21 11:33:43;;;;;;;;;;;;;;;23.61;33.86;102983.22;5050661;28;19929;-46
2021/09/21 11:36:11;;;;;;;;;;;;;;;23.58;34.62;102986.19;5050123;28;19924;-47
2021/09/21 11:38:39;;;;;;;;;;;;;;;23.44;34.91;102987.41;5050191;28;20346;-45
2021/09/21 11:41:07;;;;;;;;;;;;;;;23.85;35.30;102982.91;5050991;28;19960;-45
2021/09/21 11:43:34;;;;;;;;;;;;;;;23.89;34.74;102984.38;5049048;28;20360;-48
2021/09/21 11:46:08;;;;;;;;;;;;;;;23.90;33.98;102987.91;5065389;28;20035;-43
2021/09/21 11:48:34;;;;;;;;;;;;;;;23.91;33.07;102981.53;5050958;28;19929;-43
2021/09/21 11:51:01;;;;;;;;;;;;;;;23.88;32.54;102977.28;5051169;28;19968;-45
2021/09/21 11:53:30;;;;;;;;;;;;;;;24.23;32.98;102972.44;5050362;28;19971;-46
2021/09/21 11:55:57;;;;;;;;;;;;;;;24.17;32.55;102972.97;5051408;28;20422;-44
2021/09/21 11:58:33;;;;;;;;;;;;;;;24.26;33.23;102974.84;5049785;28;19960;-42
2021/09/21 12:01:05;;;;;;;;;;;;;;;24.29;31.03;102974.56;5050400;28;20380;-45
2021/09/21 12:03:34;;;;;;;;;;;;;;;24.27;32.41;102982.75;5032961;28;20455;-51
2021/09/21 12:06:03;;;;;;;;;;;;;;;23.98;32.43;102982.69;5050751;28;20366;-52
2021/09/21 12:08:31;;;;;;;;;;;;;;;24.04;33.48;102984.00;5050188;28;20364;-54
2021/09/21 12:11:05;;;;;;;;;;;;;;;24.22;32.63;102974.25;5066158;28;19929;-51
2021/09/21 12:13:32;;;;;;;;;;;;;;;24.12;32.63;102976.94;5047946;28;19925;-50
2021/09/21 12:16:03;;;;;;;;;;;;;;;24.17;33.27;102967.59;5050536;28;19925;-50
2021/09/21 12:18:31;;;;;;;;;;;;;;;24.32;33.82;102966.19;5050315;28;19925;-52
2021/09/21 12:21:00;;;;;;;;;;;;;;;24.22;32.67;102968.03;5049252;28;19925;-50
2021/09/21 12:23:32;;;;;;;;;;;;;;;24.13;33.07;102965.19;5049576;28;19979;-52
2021/09/21 12:26:00;;;;;;;;;;;;;;;24.10;32.52;102965.44;5049295;28;19979;-54
2021/09/21 12:28:28;;;;;;;;;;;;;;;24.38;32.87;102973.72;5048746;28;19971;-48
2021/09/21 12:30:56;;;;;;;;;;;;;;;23.94;32.88;102974.06;5048229;28;19933;-51
2021/09/21 12:33:22;;;;;;;;;;;;;;;23.94;32.23;102970.50;5050041;28;20304;-52
2021/09/21 12:35:50;;;;;;;;;;;;;;;23.90;32.17;102967.28;5048720;28;19955;-50
2021/09/21 12:38:18;;;;;;;;;;;;;;;24.00;34.75;102975.34;5048779;28;19929;-50
2021/09/21 12:40:55;;;;;;;;;;;;;;;23.91;33.86;102962.72;5049668;28;19982;-51
2021/09/21 12:43:24;;;;;;;;;;;;;;;23.78;35.21;102965.66;5048605;28;19925;-50
2021/09/21 12:45:52;;;;;;;;;;;;;;;23.66;34.95;102967.56;5049129;28;19929;-53
2021/09/21 12:48:26;;;;;;;;;;;;;;;23.57;33.41;102955.81;5049635;28;20380;-52
2021/09/21 12:50:53;;;;;;;;;;;;;;;23.86;34.39;102968.50;5065014;28;19932;-50
2021/09/21 12:53:20;;;;;;;;;;;;;;;23.92;34.10;102967.13;5048230;28;20031;-51